Royalty, Texas
Current Conditions -  °F | °C
As of 6:53 PM on Saturday 20 Dec 2014 (Local Time) from KFST Reporting Station
Clear Clear  
Wind Chill: 52°   Ceiling: Unl
Heat Index: 52°   Visibility: 10mi
Dew Point: 42°   Wind: 10mph
Humidity: 69%   Direction: 120°ESE
Pressure: 30.04"   Gusts: NA
Location:  31.37°N, 102.87°W
Report Text: KFST 210053Z AUTO 12009KT 10SM CLR 11/06 A3004 RMK AO2 SLP155 T01110056 $
Loading
Personal Weather Stations






























Interactive Weather Map New forecast layout! Learn more

10-Day Weather Forecast

Advertisements
Track Severe Weather on mobile